sensor_id;sensor_type;location;lat;lon;timestamp;pressure;altitude;pressure_sealevel;temperature
68027;BMP180;54819;48.030;14.710;2022-11-12T00:00:14;99207.00;;;6.90
68027;BMP180;54819;48.030;14.710;2022-11-12T00:02:59;99209.20;;;6.90
68027;BMP180;54819;48.030;14.710;2022-11-12T00:05:45;99206.40;;;6.86
68027;BMP180;54819;48.030;14.710;2022-11-12T00:08:34;99206.60;;;6.86
68027;BMP180;54819;48.030;14.710;2022-11-12T00:11:20;99205.40;;;6.88
68027;BMP180;54819;48.030;14.710;2022-11-12T00:14:06;99205.40;;;6.80
68027;BMP180;54819;48.030;14.710;2022-11-12T00:16:51;99206.00;;;6.80
68027;BMP180;54819;48.030;14.710;2022-11-12T00:19:37;99204.80;;;6.80
68027;BMP180;54819;48.030;14.710;2022-11-12T00:22:23;99203.60;;;6.80
68027;BMP180;54819;48.030;14.710;2022-11-12T00:25:09;99205.20;;;6.70
68027;BMP180;54819;48.030;14.710;2022-11-12T00:28:09;99202.60;;;6.70
68027;BMP180;54819;48.030;14.710;2022-11-12T00:30:54;99202.20;;;6.70
68027;BMP180;54819;48.030;14.710;2022-11-12T00:33:42;99203.60;;;6.68
68027;BMP180;54819;48.030;14.710;2022-11-12T00:36:27;99202.40;;;6.60
68027;BMP180;54819;48.030;14.710;2022-11-12T00:39:13;99203.20;;;6.60
68027;BMP180;54819;48.030;14.710;2022-11-12T00:41:59;99201.20;;;6.60
68027;BMP180;54819;48.030;14.710;2022-11-12T00:44:45;99203.40;;;6.60
68027;BMP180;54819;48.030;14.710;2022-11-12T00:47:30;99203.80;;;6.60
68027;BMP180;54819;48.030;14.710;2022-11-12T00:50:16;99205.40;;;6.60
68027;BMP180;54819;48.030;14.710;2022-11-12T00:53:01;99202.60;;;6.50
68027;BMP180;54819;48.030;14.710;2022-11-12T00:55:47;99206.20;;;6.50
68027;BMP180;54819;48.030;14.710;2022-11-12T00:58:35;99198.80;;;6.50
68027;BMP180;54819;48.030;14.710;2022-11-12T01:01:21;99192.60;;;6.50
68027;BMP180;54819;48.030;14.710;2022-11-12T01:04:08;99192.60;;;6.42
68027;BMP180;54819;48.030;14.710;2022-11-12T01:06:54;99191.40;;;6.40
68027;BMP180;54819;48.030;14.710;2022-11-12T01:09:39;99193.00;;;6.46
68027;BMP180;54819;48.030;14.710;2022-11-12T01:12:25;99186.60;;;6.40
68027;BMP180;54819;48.030;14.710;2022-11-12T01:15:11;99193.80;;;6.40
68027;BMP180;54819;48.030;14.710;2022-11-12T01:17:56;99191.20;;;6.40
68027;BMP180;54819;48.030;14.710;2022-11-12T01:20:42;99186.20;;;6.40
68027;BMP180;54819;48.030;14.710;2022-11-12T01:23:30;99192.40;;;6.40
68027;BMP180;54819;48.030;14.710;2022-11-12T01:26:20;99190.80;;;6.38
68027;BMP180;54819;48.030;14.710;2022-11-12T01:29:06;99188.20;;;6.40
68027;BMP180;54819;48.030;14.710;2022-11-12T01:31:52;99180.00;;;6.40
68027;BMP180;54819;48.030;14.710;2022-11-12T01:34:37;99174.40;;;6.40
68027;BMP180;54819;48.030;14.710;2022-11-12T01:37:23;99174.60;;;6.40
68027;BMP180;54819;48.030;14.710;2022-11-12T01:40:09;99168.60;;;6.40
68027;BMP180;54819;48.030;14.710;2022-11-12T01:42:55;99171.80;;;6.40
68027;BMP180;54819;48.030;14.710;2022-11-12T01:45:45;99168.80;;;6.38
68027;BMP180;54819;48.030;14.710;2022-11-12T01:48:38;99162.40;;;6.30
68027;BMP180;54819;48.030;14.710;2022-11-12T01:51:32;99159.40;;;6.30
68027;BMP180;54819;48.030;14.710;2022-11-12T01:54:20;99152.20;;;6.28
68027;BMP180;54819;48.030;14.710;2022-11-12T01:57:09;99159.80;;;6.20
68027;BMP180;54819;48.030;14.710;2022-11-12T02:00:01;99166.40;;;6.12
68027;BMP180;54819;48.030;14.710;2022-11-12T02:02:56;99161.40;;;6.10
68027;BMP180;54819;48.030;14.710;2022-11-12T02:05:51;99162.00;;;6.10
68027;BMP180;54819;48.030;14.710;2022-11-12T02:08:38;99160.80;;;6.10
68027;BMP180;54819;48.030;14.710;2022-11-12T02:11:25;99163.60;;;6.00
68027;BMP180;54819;48.030;14.710;2022-11-12T02:14:11;99159.40;;;6.00
68027;BMP180;54819;48.030;14.710;2022-11-12T02:16:58;99158.00;;;6.00
68027;BMP180;54819;48.030;14.710;2022-11-12T02:19:46;99152.00;;;6.00
68027;BMP180;54819;48.030;14.710;2022-11-12T02:22:31;99147.00;;;5.90
68027;BMP180;54819;48.030;14.710;2022-11-12T02:25:23;99147.80;;;5.90
68027;BMP180;54819;48.030;14.710;2022-11-12T02:28:09;99146.40;;;5.80
68027;BMP180;54819;48.030;14.710;2022-11-12T02:30:54;99142.20;;;5.80
68027;BMP180;54819;48.030;14.710;2022-11-12T02:33:40;99143.60;;;5.70
68027;BMP180;54819;48.030;14.710;2022-11-12T02:36:26;99143.60;;;5.60
68027;BMP180;54819;48.030;14.710;2022-11-12T02:39:12;99141.80;;;5.60
68027;BMP180;54819;48.030;14.710;2022-11-12T02:41:58;99137.00;;;5.60
68027;BMP180;54819;48.030;14.710;2022-11-12T02:44:44;99131.60;;;5.60
68027;BMP180;54819;48.030;14.710;2022-11-12T02:47:30;99122.20;;;5.60
68027;BMP180;54819;48.030;14.710;2022-11-12T02:50:16;99131.00;;;5.60
68027;BMP180;54819;48.030;14.710;2022-11-12T02:53:02;99124.00;;;5.60
68027;BMP180;54819;48.030;14.710;2022-11-12T02:55:48;99136.20;;;5.60
68027;BMP180;54819;48.030;14.710;2022-11-12T02:58:34;99136.20;;;5.60
68027;BMP180;54819;48.030;14.710;2022-11-12T03:01:20;99136.40;;;5.60
68027;BMP180;54819;48.030;14.710;2022-11-12T03:04:06;99137.20;;;5.60
68027;BMP180;54819;48.030;14.710;2022-11-12T03:06:51;99134.80;;;5.60
68027;BMP180;54819;48.030;14.710;2022-11-12T03:09:37;99138.80;;;5.62
68027;BMP180;54819;48.030;14.710;2022-11-12T03:12:22;99139.00;;;5.70
68027;BMP180;54819;48.030;14.710;2022-11-12T03:15:09;99130.00;;;5.74
68027;BMP180;54819;48.030;14.710;2022-11-12T03:17:57;99136.80;;;5.80
68027;BMP180;54819;48.030;14.710;2022-11-12T03:20:42;99131.60;;;5.80
68027;BMP180;54819;48.030;14.710;2022-11-12T03:23:28;99133.60;;;5.88
68027;BMP180;54819;48.030;14.710;2022-11-12T03:26:14;99131.40;;;5.80
68027;BMP180;54819;48.030;14.710;2022-11-12T03:28:59;99136.80;;;5.80
68027;BMP180;54819;48.030;14.710;2022-11-12T03:31:45;99138.40;;;5.80
68027;BMP180;54819;48.030;14.710;2022-11-12T03:34:30;99143.00;;;5.80
68027;BMP180;54819;48.030;14.710;2022-11-12T03:37:16;99144.20;;;5.80
68027;BMP180;54819;48.030;14.710;2022-11-12T03:40:02;99136.40;;;5.80
68027;BMP180;54819;48.030;14.710;2022-11-12T03:42:50;99144.40;;;5.80
68027;BMP180;54819;48.030;14.710;2022-11-12T03:45:36;99143.40;;;5.82
68027;BMP180;54819;48.030;14.710;2022-11-12T03:48:21;99143.40;;;5.86
68027;BMP180;54819;48.030;14.710;2022-11-12T03:51:07;99137.60;;;5.86
68027;BMP180;54819;48.030;14.710;2022-11-12T03:53:53;99137.00;;;5.90
68027;BMP180;54819;48.030;14.710;2022-11-12T03:56:38;99132.80;;;5.90
68027;BMP180;54819;48.030;14.710;2022-11-12T03:59:24;99129.00;;;5.90
68027;BMP180;54819;48.030;14.710;2022-11-12T04:02:10;99127.60;;;5.90
68027;BMP180;54819;48.030;14.710;2022-11-12T04:04:59;99117.00;;;5.90
68027;BMP180;54819;48.030;14.710;2022-11-12T04:08:09;99114.40;;;5.80
68027;BMP180;54819;48.030;14.710;2022-11-12T04:11:16;99108.00;;;5.82
68027;BMP180;54819;48.030;14.710;2022-11-12T04:14:01;99109.40;;;5.80
68027;BMP180;54819;48.030;14.710;2022-11-12T04:16:47;99103.80;;;5.70
68027;BMP180;54819;48.030;14.710;2022-11-12T04:19:51;99102.40;;;5.70
68027;BMP180;54819;48.030;14.710;2022-11-12T04:22:55;99105.40;;;5.70
68027;BMP180;54819;48.030;14.710;2022-11-12T04:25:41;99108.00;;;5.62
68027;BMP180;54819;48.030;14.710;2022-11-12T04:28:45;99110.80;;;5.66
68027;BMP180;54819;48.030;14.710;2022-11-12T04:31:49;99108.40;;;5.64
68027;BMP180;54819;48.030;14.710;2022-11-12T04:34:35;99108.20;;;5.62
68027;BMP180;54819;48.030;14.710;2022-11-12T04:37:23;99108.60;;;5.60
68027;BMP180;54819;48.030;14.710;2022-11-12T04:40:19;99111.40;;;5.60
68027;BMP180;54819;48.030;14.710;2022-11-12T04:43:24;99111.60;;;5.60
68027;BMP180;54819;48.030;14.710;2022-11-12T04:46:28;99114.40;;;5.50
68027;BMP180;54819;48.030;14.710;2022-11-12T04:49:14;99112.60;;;5.50
68027;BMP180;54819;48.030;14.710;2022-11-12T04:51:59;99108.80;;;5.40
68027;BMP180;54819;48.030;14.710;2022-11-12T04:54:52;99113.00;;;5.40
68027;BMP180;54819;48.030;14.710;2022-11-12T04:57:38;99115.40;;;5.44
68027;BMP180;54819;48.030;14.710;2022-11-12T05:00:24;99113.40;;;5.42
68027;BMP180;54819;48.030;14.710;2022-11-12T05:03:11;99116.60;;;5.40
68027;BMP180;54819;48.030;14.710;2022-11-12T05:06:05;99114.20;;;5.40
68027;BMP180;54819;48.030;14.710;2022-11-12T05:09:13;99113.40;;;5.50
68027;BMP180;54819;48.030;14.710;2022-11-12T05:11:59;99118.80;;;5.40
68027;BMP180;54819;48.030;14.710;2022-11-12T05:14:44;99116.80;;;5.40
68027;BMP180;54819;48.030;14.710;2022-11-12T05:17:30;99119.40;;;5.40
68027;BMP180;54819;48.030;14.710;2022-11-12T05:20:17;99117.00;;;5.40
68027;BMP180;54819;48.030;14.710;2022-11-12T05:23:02;99115.60;;;5.38
68027;BMP180;54819;48.030;14.710;2022-11-12T05:25:52;99115.20;;;5.40
68027;BMP180;54819;48.030;14.710;2022-11-12T05:28:37;99118.00;;;5.40
68027;BMP180;54819;48.030;14.710;2022-11-12T05:31:23;99119.60;;;5.34
68027;BMP180;54819;48.030;14.710;2022-11-12T05:34:09;99112.80;;;5.30
68027;BMP180;54819;48.030;14.710;2022-11-12T05:36:55;99116.00;;;5.30
68027;BMP180;54819;48.030;14.710;2022-11-12T05:39:41;99116.80;;;5.30
68027;BMP180;54819;48.030;14.710;2022-11-12T05:42:26;99115.60;;;5.30
68027;BMP180;54819;48.030;14.710;2022-11-12T05:45:12;99113.00;;;5.28
68027;BMP180;54819;48.030;14.710;2022-11-12T05:47:58;99113.80;;;5.30
68027;BMP180;54819;48.030;14.710;2022-11-12T05:50:44;99120.00;;;5.30
68027;BMP180;54819;48.030;14.710;2022-11-12T05:53:49;99125.80;;;5.40
68027;BMP180;54819;48.030;14.710;2022-11-12T05:56:36;99120.60;;;5.40
68027;BMP180;54819;48.030;14.710;2022-11-12T05:59:21;99123.00;;;5.30
68027;BMP180;54819;48.030;14.710;2022-11-12T06:02:07;99120.20;;;5.30
68027;BMP180;54819;48.030;14.710;2022-11-12T06:04:53;99122.00;;;5.20
68027;BMP180;54819;48.030;14.710;2022-11-12T06:07:38;99123.40;;;5.20
68027;BMP180;54819;48.030;14.710;2022-11-12T06:10:26;99124.00;;;5.20
68027;BMP180;54819;48.030;14.710;2022-11-12T06:13:11;99126.00;;;5.20
68027;BMP180;54819;48.030;14.710;2022-11-12T06:15:57;99133.00;;;5.16
68027;BMP180;54819;48.030;14.710;2022-11-12T06:18:43;99132.40;;;5.14
68027;BMP180;54819;48.030;14.710;2022-11-12T06:21:28;99134.00;;;5.14
68027;BMP180;54819;48.030;14.710;2022-11-12T06:24:14;99141.80;;;5.10
68027;BMP180;54819;48.030;14.710;2022-11-12T06:26:59;99143.40;;;5.10
68027;BMP180;54819;48.030;14.710;2022-11-12T06:29:45;99145.80;;;5.10
68027;BMP180;54819;48.030;14.710;2022-11-12T06:32:31;99148.20;;;5.10
68027;BMP180;54819;48.030;14.710;2022-11-12T06:35:18;99149.40;;;5.10
68027;BMP180;54819;48.030;14.710;2022-11-12T06:38:03;99145.20;;;5.16
68027;BMP180;54819;48.030;14.710;2022-11-12T06:40:49;99150.20;;;5.16
68027;BMP180;54819;48.030;14.710;2022-11-12T06:43:35;99159.00;;;5.20
68027;BMP180;54819;48.030;14.710;2022-11-12T06:46:21;99162.80;;;5.18
68027;BMP180;54819;48.030;14.710;2022-11-12T06:49:07;99158.00;;;5.20
68027;BMP180;54819;48.030;14.710;2022-11-12T06:51:52;99153.60;;;5.20
68027;BMP180;54819;48.030;14.710;2022-11-12T06:54:38;99149.80;;;5.18
68027;BMP180;54819;48.030;14.710;2022-11-12T06:57:24;99158.60;;;5.32
68027;BMP180;54819;48.030;14.710;2022-11-12T07:00:11;99162.00;;;5.36
68027;BMP180;54819;48.030;14.710;2022-11-12T07:02:56;99168.80;;;5.40
68027;BMP180;54819;48.030;14.710;2022-11-12T07:05:42;99173.00;;;5.46
68027;BMP180;54819;48.030;14.710;2022-11-12T07:08:27;99168.20;;;5.50
68027;BMP180;54819;48.030;14.710;2022-11-12T07:11:18;99164.80;;;5.50
68027;BMP180;54819;48.030;14.710;2022-11-12T07:14:05;99158.60;;;5.50
68027;BMP180;54819;48.030;14.710;2022-11-12T07:16:51;99154.80;;;5.50
68027;BMP180;54819;48.030;14.710;2022-11-12T07:19:36;99157.80;;;5.50
68027;BMP180;54819;48.030;14.710;2022-11-12T07:22:22;99160.60;;;5.42
68027;BMP180;54819;48.030;14.710;2022-11-12T07:25:08;99157.00;;;5.48
68027;BMP180;54819;48.030;14.710;2022-11-12T07:27:53;99155.20;;;5.50
68027;BMP180;54819;48.030;14.710;2022-11-12T07:30:39;99152.00;;;5.60
68027;BMP180;54819;48.030;14.710;2022-11-12T07:33:27;99149.60;;;5.70
68027;BMP180;54819;48.030;14.710;2022-11-12T07:36:15;99150.20;;;5.80
68027;BMP180;54819;48.030;14.710;2022-11-12T07:39:01;99148.60;;;5.84
68027;BMP180;54819;48.030;14.710;2022-11-12T07:41:47;99154.00;;;5.90
68027;BMP180;54819;48.030;14.710;2022-11-12T07:44:32;99152.00;;;5.90
68027;BMP180;54819;48.030;14.710;2022-11-12T07:47:18;99149.80;;;5.90
68027;BMP180;54819;48.030;14.710;2022-11-12T07:50:04;99150.00;;;5.90
68027;BMP180;54819;48.030;14.710;2022-11-12T07:52:50;99148.40;;;5.92
68027;BMP180;54819;48.030;14.710;2022-11-12T07:55:35;99149.40;;;6.00
68027;BMP180;54819;48.030;14.710;2022-11-12T07:58:22;99152.20;;;6.00
68027;BMP180;54819;48.030;14.710;2022-11-12T08:03:58;99156.80;;;6.10
68027;BMP180;54819;48.030;14.710;2022-11-12T08:06:43;99157.80;;;6.10
68027;BMP180;54819;48.030;14.710;2022-11-12T08:09:29;99156.20;;;6.18
68027;BMP180;54819;48.030;14.710;2022-11-12T08:12:15;99156.40;;;6.20
68027;BMP180;54819;48.030;14.710;2022-11-12T08:15:01;99153.40;;;6.10
68027;BMP180;54819;48.030;14.710;2022-11-12T08:17:46;99153.80;;;6.10
68027;BMP180;54819;48.030;14.710;2022-11-12T08:20:32;99161.80;;;6.12
68027;BMP180;54819;48.030;14.710;2022-11-12T08:23:17;99160.00;;;6.18
68027;BMP180;54819;48.030;14.710;2022-11-12T08:26:06;99163.60;;;6.20
68027;BMP180;54819;48.030;14.710;2022-11-12T08:28:52;99163.00;;;6.30
68027;BMP180;54819;48.030;14.710;2022-11-12T08:31:38;99159.40;;;6.40
68027;BMP180;54819;48.030;14.710;2022-11-12T08:34:23;99162.00;;;6.50
68027;BMP180;54819;48.030;14.710;2022-11-12T08:37:09;99162.40;;;6.54
68027;BMP180;54819;48.030;14.710;2022-11-12T08:39:55;99159.00;;;6.60
68027;BMP180;54819;48.030;14.710;2022-11-12T08:42:40;99165.20;;;6.70
68027;BMP180;54819;48.030;14.710;2022-11-12T08:45:27;99161.20;;;6.70
68027;BMP180;54819;48.030;14.710;2022-11-12T08:48:13;99155.00;;;6.78
68027;BMP180;54819;48.030;14.710;2022-11-12T08:51:04;99161.60;;;6.80
68027;BMP180;54819;48.030;14.710;2022-11-12T08:53:50;99167.80;;;6.80
68027;BMP180;54819;48.030;14.710;2022-11-12T08:56:35;99171.20;;;6.80
68027;BMP180;54819;48.030;14.710;2022-11-12T08:59:21;99167.00;;;6.90
68027;BMP180;54819;48.030;14.710;2022-11-12T09:02:12;99175.40;;;6.96
68027;BMP180;54819;48.030;14.710;2022-11-12T09:04:58;99179.00;;;7.10
68027;BMP180;54819;48.030;14.710;2022-11-12T09:07:43;99179.00;;;7.20
68027;BMP180;54819;48.030;14.710;2022-11-12T09:10:37;99175.80;;;7.38
68027;BMP180;54819;48.030;14.710;2022-11-12T09:13:23;99170.40;;;7.50
68027;BMP180;54819;48.030;14.710;2022-11-12T09:16:09;99169.00;;;7.56
68027;BMP180;54819;48.030;14.710;2022-11-12T09:18:55;99170.40;;;7.60
68027;BMP180;54819;48.030;14.710;2022-11-12T09:21:40;99175.60;;;7.60
68027;BMP180;54819;48.030;14.710;2022-11-12T09:24:26;99162.80;;;7.70
68027;BMP180;54819;48.030;14.710;2022-11-12T09:27:12;99178.20;;;7.78
68027;BMP180;54819;48.030;14.710;2022-11-12T09:29:58;99178.80;;;7.88
68027;BMP180;54819;48.030;14.710;2022-11-12T09:32:44;99182.00;;;7.96
68027;BMP180;54819;48.030;14.710;2022-11-12T09:35:30;99187.20;;;8.04
68027;BMP180;54819;48.030;14.710;2022-11-12T09:38:16;99198.40;;;8.12
68027;BMP180;54819;48.030;14.710;2022-11-12T09:41:22;99192.40;;;8.30
68027;BMP180;54819;48.030;14.710;2022-11-12T09:44:18;99187.40;;;8.40
68027;BMP180;54819;48.030;14.710;2022-11-12T09:47:18;99184.80;;;8.50
68027;BMP180;54819;48.030;14.710;2022-11-12T09:50:32;99185.20;;;8.60
68027;BMP180;54819;48.030;14.710;2022-11-12T09:53:45;99182.40;;;8.70
68027;BMP180;54819;48.030;14.710;2022-11-12T09:56:32;99179.00;;;8.88
68027;BMP180;54819;48.030;14.710;2022-11-12T09:59:19;99174.00;;;8.90
68027;BMP180;54819;48.030;14.710;2022-11-12T10:08:40;99185.20;;;9.50
68027;BMP180;54819;48.030;14.710;2022-11-12T10:11:57;99186.60;;;9.68
68027;BMP180;54819;48.030;14.710;2022-11-12T10:25:19;99172.40;;;9.94
68027;BMP180;54819;48.030;14.710;2022-11-12T10:28:25;99171.20;;;9.96
68027;BMP180;54819;48.030;14.710;2022-11-12T10:31:15;99170.60;;;10.16
68027;BMP180;54819;48.030;14.710;2022-11-12T10:34:14;99163.20;;;10.30
68027;BMP180;54819;48.030;14.710;2022-11-12T10:37:06;99164.60;;;10.38
68027;BMP180;54819;48.030;14.710;2022-11-12T10:39:54;99163.20;;;10.44
68027;BMP180;54819;48.030;14.710;2022-11-12T10:42:57;99164.20;;;10.56
68027;BMP180;54819;48.030;14.710;2022-11-12T10:45:45;99152.00;;;10.72
68027;BMP180;54819;48.030;14.710;2022-11-12T10:48:32;99149.20;;;10.86
68027;BMP180;54819;48.030;14.710;2022-11-12T10:51:27;99148.60;;;11.00
68027;BMP180;54819;48.030;14.710;2022-11-12T10:57:21;99146.40;;;11.30
68027;BMP180;54819;48.030;14.710;2022-11-12T11:02:59;99145.60;;;11.58
68027;BMP180;54819;48.030;14.710;2022-11-12T11:05:58;99140.40;;;11.66
68027;BMP180;54819;48.030;14.710;2022-11-12T11:08:48;99133.80;;;11.74
68027;BMP180;54819;48.030;14.710;2022-11-12T11:11:34;99130.00;;;11.82
68027;BMP180;54819;48.030;14.710;2022-11-12T11:17:17;99132.60;;;11.82
68027;BMP180;54819;48.030;14.710;2022-11-12T11:20:22;99127.40;;;11.80
68027;BMP180;54819;48.030;14.710;2022-11-12T11:36:15;99126.20;;;12.08
68027;BMP180;54819;48.030;14.710;2022-11-12T11:42:37;99116.40;;;11.98
68027;BMP180;54819;48.030;14.710;2022-11-12T11:46:08;99116.20;;;11.96
68027;BMP180;54819;48.030;14.710;2022-11-12T11:52:43;99127.00;;;12.00
68027;BMP180;54819;48.030;14.710;2022-11-12T11:55:37;99122.00;;;12.16
68027;BMP180;54819;48.030;14.710;2022-11-12T11:59:13;99119.20;;;12.20
68027;BMP180;54819;48.030;14.710;2022-11-12T12:09:00;99101.80;;;12.50
68027;BMP180;54819;48.030;14.710;2022-11-12T12:11:58;99099.20;;;12.50
68027;BMP180;54819;48.030;14.710;2022-11-12T12:15:15;99101.80;;;12.58
68027;BMP180;54819;48.030;14.710;2022-11-12T12:19:13;99096.00;;;12.68
68027;BMP180;54819;48.030;14.710;2022-11-12T12:21:36;99088.40;;;12.88
68027;BMP180;54819;48.030;14.710;2022-11-12T12:24:36;99082.40;;;12.90
68027;BMP180;54819;48.030;14.710;2022-11-12T12:27:35;99075.80;;;12.90
68027;BMP180;54819;48.030;14.710;2022-11-12T12:30:23;99071.80;;;12.90
68027;BMP180;54819;48.030;14.710;2022-11-12T12:33:46;99068.80;;;12.90
68027;BMP180;54819;48.030;14.710;2022-11-12T12:36:33;99063.80;;;13.00
68027;BMP180;54819;48.030;14.710;2022-11-12T12:39:48;99061.80;;;12.80
68027;BMP180;54819;48.030;14.710;2022-11-12T12:42:46;99069.60;;;12.70
68027;BMP180;54819;48.030;14.710;2022-11-12T12:45:40;99064.20;;;12.50
68027;BMP180;54819;48.030;14.710;2022-11-12T12:48:37;99062.00;;;12.40
68027;BMP180;54819;48.030;14.710;2022-11-12T12:51:30;99061.40;;;12.20
68027;BMP180;54819;48.030;14.710;2022-11-12T12:57:29;99055.80;;;11.70
68027;BMP180;54819;48.030;14.710;2022-11-12T13:00:36;99052.80;;;11.50
68027;BMP180;54819;48.030;14.710;2022-11-12T13:12:03;99048.60;;;11.00
68027;BMP180;54819;48.030;14.710;2022-11-12T13:15:11;99041.40;;;10.90
68027;BMP180;54819;48.030;14.710;2022-11-12T13:17:57;99043.40;;;11.02
68027;BMP180;54819;48.030;14.710;2022-11-12T13:21:23;99039.80;;;11.10
68027;BMP180;54819;48.030;14.710;2022-11-12T13:24:09;99052.60;;;11.10
68027;BMP180;54819;48.030;14.710;2022-11-12T13:26:58;99052.40;;;11.00
68027;BMP180;54819;48.030;14.710;2022-11-12T13:29:46;99048.80;;;11.00
68027;BMP180;54819;48.030;14.710;2022-11-12T13:32:55;99036.00;;;10.90
68027;BMP180;54819;48.030;14.710;2022-11-12T13:35:41;99032.80;;;10.90
68027;BMP180;54819;48.030;14.710;2022-11-12T13:38:27;99028.60;;;10.80
68027;BMP180;54819;48.030;14.710;2022-11-12T13:41:18;99029.80;;;10.70
68027;BMP180;54819;48.030;14.710;2022-11-12T13:44:26;99024.00;;;10.70
68027;BMP180;54819;48.030;14.710;2022-11-12T13:47:17;99022.20;;;10.70
68027;BMP180;54819;48.030;14.710;2022-11-12T13:50:09;99019.40;;;10.70
68027;BMP180;54819;48.030;14.710;2022-11-12T13:52:58;99015.00;;;10.70
68027;BMP180;54819;48.030;14.710;2022-11-12T13:55:50;99017.60;;;10.60
68027;BMP180;54819;48.030;14.710;2022-11-12T13:58:37;99007.20;;;10.60
68027;BMP180;54819;48.030;14.710;2022-11-12T14:01:25;99006.20;;;10.60
68027;BMP180;54819;48.030;14.710;2022-11-12T14:04:23;99006.80;;;10.50
68027;BMP180;54819;48.030;14.710;2022-11-12T14:10:36;99000.60;;;10.50
68027;BMP180;54819;48.030;14.710;2022-11-12T14:16:52;98991.60;;;10.32
68027;BMP180;54819;48.030;14.710;2022-11-12T14:20:05;98985.40;;;10.30
68027;BMP180;54819;48.030;14.710;2022-11-12T14:22:53;98994.80;;;10.22
68027;BMP180;54819;48.030;14.710;2022-11-12T14:26:06;98992.80;;;10.20
68027;BMP180;54819;48.030;14.710;2022-11-12T14:28:55;98982.20;;;10.10
68027;BMP180;54819;48.030;14.710;2022-11-12T14:31:41;98980.60;;;10.10
68027;BMP180;54819;48.030;14.710;2022-11-12T14:34:33;98981.60;;;10.00
68027;BMP180;54819;48.030;14.710;2022-11-12T14:37:36;98976.80;;;9.90
68027;BMP180;54819;48.030;14.710;2022-11-12T14:40:33;98979.40;;;9.86
68027;BMP180;54819;48.030;14.710;2022-11-12T14:43:37;98981.20;;;9.80
68027;BMP180;54819;48.030;14.710;2022-11-12T14:46:38;98978.60;;;9.70
68027;BMP180;54819;48.030;14.710;2022-11-12T14:49:47;98981.60;;;9.60
68027;BMP180;54819;48.030;14.710;2022-11-12T14:52:41;98978.20;;;9.60
68027;BMP180;54819;48.030;14.710;2022-11-12T14:55:33;98978.60;;;9.58
68027;BMP180;54819;48.030;14.710;2022-11-12T14:58:22;98975.00;;;9.50
68027;BMP180;54819;48.030;14.710;2022-11-12T15:04:42;98965.40;;;9.32
68027;BMP180;54819;48.030;14.710;2022-11-12T15:07:32;98967.40;;;9.30
68027;BMP180;54819;48.030;14.710;2022-11-12T15:10:41;98966.80;;;9.20
68027;BMP180;54819;48.030;14.710;2022-11-12T15:13:37;98970.60;;;9.12
68027;BMP180;54819;48.030;14.710;2022-11-12T15:16:29;98972.60;;;9.10
68027;BMP180;54819;48.030;14.710;2022-11-12T15:19:24;98969.20;;;9.00
68027;BMP180;54819;48.030;14.710;2022-11-12T15:22:21;98963.40;;;8.90
68027;BMP180;54819;48.030;14.710;2022-11-12T15:25:18;98966.00;;;8.90
68027;BMP180;54819;48.030;14.710;2022-11-12T15:28:22;98968.60;;;8.80
68027;BMP180;54819;48.030;14.710;2022-11-12T15:31:19;98965.60;;;8.80
68027;BMP180;54819;48.030;14.710;2022-11-12T15:37:26;98969.80;;;8.60
68027;BMP180;54819;48.030;14.710;2022-11-12T15:40:19;98971.20;;;8.50
68027;BMP180;54819;48.030;14.710;2022-11-12T15:43:14;98973.60;;;8.40
68027;BMP180;54819;48.030;14.710;2022-11-12T15:46:00;98968.60;;;8.40
68027;BMP180;54819;48.030;14.710;2022-11-12T15:48:47;98975.80;;;8.40
68027;BMP180;54819;48.030;14.710;2022-11-12T15:51:39;98973.00;;;8.38
68027;BMP180;54819;48.030;14.710;2022-11-12T15:54:25;98969.80;;;8.36
68027;BMP180;54819;48.030;14.710;2022-11-12T15:57:20;98967.00;;;8.32
68027;BMP180;54819;48.030;14.710;2022-11-12T16:00:14;98962.20;;;8.30
68027;BMP180;54819;48.030;14.710;2022-11-12T16:03:15;98958.20;;;8.30
68027;BMP180;54819;48.030;14.710;2022-11-12T16:06:00;98959.60;;;8.30
68027;BMP180;54819;48.030;14.710;2022-11-12T16:08:53;98958.20;;;8.30
68027;BMP180;54819;48.030;14.710;2022-11-12T16:11:39;98960.20;;;8.30
68027;BMP180;54819;48.030;14.710;2022-11-12T16:14:25;98961.40;;;8.26
68027;BMP180;54819;48.030;14.710;2022-11-12T16:17:16;98966.40;;;8.22
68027;BMP180;54819;48.030;14.710;2022-11-12T16:20:31;98964.80;;;8.20
68027;BMP180;54819;48.030;14.710;2022-11-12T16:23:17;98961.60;;;8.20
68027;BMP180;54819;48.030;14.710;2022-11-12T16:26:07;98961.20;;;8.10
68027;BMP180;54819;48.030;14.710;2022-11-12T16:28:53;98960.20;;;8.10
68027;BMP180;54819;48.030;14.710;2022-11-12T16:31:41;98962.00;;;8.00
68027;BMP180;54819;48.030;14.710;2022-11-12T16:34:27;98957.40;;;7.98
68027;BMP180;54819;48.030;14.710;2022-11-12T16:37:14;98959.20;;;7.90
68027;BMP180;54819;48.030;14.710;2022-11-12T16:40:00;98954.60;;;7.80
68027;BMP180;54819;48.030;14.710;2022-11-12T16:42:46;98960.80;;;7.80
68027;BMP180;54819;48.030;14.710;2022-11-12T16:45:39;98961.00;;;7.70
68027;BMP180;54819;48.030;14.710;2022-11-12T16:48:25;98958.20;;;7.60
68027;BMP180;54819;48.030;14.710;2022-11-12T16:51:15;98955.60;;;7.50
68027;BMP180;54819;48.030;14.710;2022-11-12T16:54:02;98955.40;;;7.40
68027;BMP180;54819;48.030;14.710;2022-11-12T16:56:48;98957.60;;;7.40
68027;BMP180;54819;48.030;14.710;2022-11-12T16:59:34;98957.00;;;7.32
68027;BMP180;54819;48.030;14.710;2022-11-12T17:02:19;98957.80;;;7.30
68027;BMP180;54819;48.030;14.710;2022-11-12T17:05:19;98952.20;;;7.30
68027;BMP180;54819;48.030;14.710;2022-11-12T17:08:05;98954.40;;;7.30
68027;BMP180;54819;48.030;14.710;2022-11-12T17:10:51;98951.80;;;7.30
68027;BMP180;54819;48.030;14.710;2022-11-12T17:13:37;98956.40;;;7.30
68027;BMP180;54819;48.030;14.710;2022-11-12T17:16:23;98956.00;;;7.30
68027;BMP180;54819;48.030;14.710;2022-11-12T17:19:09;98953.00;;;7.30
68027;BMP180;54819;48.030;14.710;2022-11-12T17:21:55;98957.60;;;7.30
68027;BMP180;54819;48.030;14.710;2022-11-12T17:24:40;98957.00;;;7.30
68027;BMP180;54819;48.030;14.710;2022-11-12T17:27:27;98957.20;;;7.34
68027;BMP180;54819;48.030;14.710;2022-11-12T17:30:13;98956.20;;;7.40
68027;BMP180;54819;48.030;14.710;2022-11-12T17:32:59;98955.80;;;7.40
68027;BMP180;54819;48.030;14.710;2022-11-12T17:35:45;98954.60;;;7.40
68027;BMP180;54819;48.030;14.710;2022-11-12T17:38:30;98952.80;;;7.40